Time;durP1;ratioP1;P1;durP2;ratioP2;P2;SDS_P1;SDS_P2;PMS_P1;PMS_P2;Temp;Humidity;BMP_temperature;BMP_pressure;BME280_temperature;BME280_humidity;BME280_pressure;Samples;Min_cycle;Max_cycle;Signal;HPM_P1;HPM_P2
2023/07/06 00:00:08;;;;;;;;;;;20.00;99.90;20.00;99663.00;;;;346567;28;90241;-88
2023/07/06 00:00:20;;;;;;;;;;;20.00;99.90;20.00;99660.00;;;;344194;28;82625;-88
2023/07/06 00:00:32;;;;;;;;;;;20.00;99.90;20.00;99670.00;;;;338487;28;87600;-87
2023/07/06 00:00:44;;;;;;;;;;;20.00;99.90;20.10;99666.00;;;;340075;28;82470;-88
2023/07/06 00:01:00;;;;;;;;;;;20.00;99.90;20.10;99663.00;;;;339540;28;90503;-87
2023/07/06 00:01:12;;;;;;;;;;;19.90;99.90;20.00;99661.00;;;;340026;28;82584;-88
2023/07/06 00:01:25;;;;;;;;;;;19.90;99.90;20.00;99659.00;;;;339562;28;92791;-88
2023/07/06 00:01:39;;;;;;;;;;;19.90;99.90;20.00;99655.00;;;;341414;28;83397;-87
2023/07/06 00:01:51;;;;;;;;;;;19.90;99.90;20.00;99655.00;;;;341226;28;88045;-88
2023/07/06 00:02:03;;;;;;;;;;;19.90;99.90;20.00;99663.00;;;;338814;28;82512;-87
2023/07/06 00:02:15;;;;;;;;;;;19.90;99.90;20.00;99653.00;;;;339616;28;90721;-87
2023/07/06 00:02:28;;;;;;;;;;;19.90;99.90;20.00;99656.00;;;;341485;28;82523;-88
2023/07/06 00:02:40;;;;;;;;;;;19.90;99.90;20.00;99664.00;;;;339627;28;90266;-88
2023/07/06 00:02:52;;;;;;;;;;;19.90;99.90;20.10;99662.00;;;;340155;28;82352;-87
2023/07/06 00:03:04;;;;;;;;;;;19.90;99.90;20.00;99655.00;;;;340875;28;88420;-88
2023/07/06 00:03:16;;;;;;;;;;;19.90;99.90;20.00;99661.00;;;;340046;28;83506;-88
2023/07/06 00:03:28;;;;;;;;;;;19.90;99.90;20.00;99657.00;;;;343843;28;90413;-87
2023/07/06 00:03:40;;;;;;;;;;;19.90;99.90;20.00;99652.00;;;;341436;28;82515;-88
2023/07/06 00:03:54;;;;;;;;;;;19.90;99.90;20.00;99656.00;;;;339884;28;87668;-88
2023/07/06 00:04:06;;;;;;;;;;;19.90;99.90;20.00;99647.00;;;;340079;28;82569;-88
2023/07/06 00:04:18;;;;;;;;;;;19.90;99.90;20.00;99652.00;;;;338384;28;91448;-88
2023/07/06 00:04:30;;;;;;;;;;;19.90;99.90;20.00;99647.00;;;;339972;28;82603;-88
2023/07/06 00:04:42;;;;;;;;;;;19.90;99.90;20.00;99655.00;;;;340966;28;90459;-88
2023/07/06 00:04:54;;;;;;;;;;;19.90;99.90;20.00;99651.00;;;;338748;28;82493;-88
2023/07/06 00:05:06;;;;;;;;;;;19.90;99.90;20.10;99651.00;;;;338120;28;90477;-88
2023/07/06 00:05:18;;;;;;;;;;;19.90;99.90;20.10;99656.00;;;;340031;28;82399;-87
2023/07/06 00:05:29;;;;;;;;;;;19.90;99.90;20.10;99654.00;;;;346323;28;92359;-88
2023/07/06 00:05:44;;;;;;;;;;;19.90;99.90;20.10;99660.00;;;;348174;28;83480;-88
2023/07/06 00:05:56;;;;;;;;;;;19.90;99.90;20.10;99656.00;;;;339592;28;90414;-88
2023/07/06 00:06:09;;;;;;;;;;;19.90;99.90;20.20;99645.00;;;;339907;28;82580;-88
2023/07/06 00:06:21;;;;;;;;;;;19.90;99.90;20.20;99649.00;;;;342118;28;90429;-89
2023/07/06 00:06:32;;;;;;;;;;;19.90;99.90;20.10;99649.00;;;;341350;28;83274;-88
2023/07/06 00:06:45;;;;;;;;;;;19.90;99.90;20.10;99647.00;;;;339282;28;86607;-88
2023/07/06 00:06:58;;;;;;;;;;;19.90;99.90;20.00;99657.00;;;;339068;28;83479;-88
2023/07/06 00:07:11;;;;;;;;;;;19.90;99.90;20.00;99653.00;;;;338585;28;91603;-88
2023/07/06 00:07:23;;;;;;;;;;;19.90;99.90;20.00;99649.00;;;;337821;28;83526;-88
2023/07/06 00:07:36;;;;;;;;;;;19.90;99.90;20.10;99645.00;;;;338669;28;90805;-87
2023/07/06 00:07:48;;;;;;;;;;;19.90;99.90;20.00;99652.00;;;;340417;28;83511;-88
2023/07/06 00:08:00;;;;;;;;;;;19.90;99.90;20.00;99650.00;;;;338762;28;90456;-88
2023/07/06 00:08:13;;;;;;;;;;;19.90;99.90;20.10;99647.00;;;;339161;28;82487;-88
2023/07/06 00:08:26;;;;;;;;;;;19.90;99.90;20.00;99649.00;;;;338540;28;91491;-88
2023/07/06 00:08:38;;;;;;;;;;;19.90;99.90;20.00;99642.00;;;;339078;28;82626;-88
2023/07/06 00:08:52;;;;;;;;;;;19.90;99.90;20.00;99646.00;;;;340156;28;88074;-88
2023/07/06 00:09:05;;;;;;;;;;;19.90;99.90;20.00;99645.00;;;;339101;28;83453;-88
2023/07/06 00:09:17;;;;;;;;;;;19.90;99.90;20.00;99645.00;;;;337471;28;90564;-88
2023/07/06 00:09:29;;;;;;;;;;;19.90;99.90;20.10;99643.00;;;;337859;28;83426;-88
2023/07/06 00:09:41;;;;;;;;;;;19.90;99.90;20.10;99651.00;;;;338498;28;92175;-88
2023/07/06 00:09:53;;;;;;;;;;;19.90;99.90;20.10;99645.00;;;;337765;28;82524;-88
2023/07/06 00:10:05;;;;;;;;;;;19.90;99.90;20.10;99644.00;;;;337343;28;90219;-88
2023/07/06 00:10:17;;;;;;;;;;;19.90;99.90;20.10;99640.00;;;;340494;28;83373;-88
2023/07/06 00:10:30;;;;;;;;;;;19.90;99.90;20.10;99647.00;;;;338687;28;90302;-88
2023/07/06 00:10:42;;;;;;;;;;;19.90;99.90;20.20;99649.00;;;;337801;28;83526;-88
2023/07/06 00:10:54;;;;;;;;;;;19.90;99.90;20.20;99645.00;;;;340109;28;90606;-88
2023/07/06 00:11:06;;;;;;;;;;;19.90;99.90;20.10;99641.00;;;;344648;28;83623;-88
2023/07/06 00:11:20;;;;;;;;;;;19.90;99.90;20.10;99649.00;;;;344253;28;91701;-88
2023/07/06 00:11:36;;;;;;;;;;;19.90;99.90;20.20;99641.00;;;;339170;28;83326;-88
2023/07/06 00:11:48;;;;;;;;;;;19.90;99.90;20.20;99639.00;;;;338599;28;92093;-88
2023/07/06 00:12:00;;;;;;;;;;;19.90;99.90;20.20;99639.00;;;;340453;28;83335;-88
2023/07/06 00:12:11;;;;;;;;;;;19.90;99.90;20.20;99639.00;;;;339940;28;89540;-88
2023/07/06 00:12:24;;;;;;;;;;;19.90;99.90;20.20;99639.00;;;;339022;28;83109;-88
2023/07/06 00:12:35;;;;;;;;;;;19.90;99.90;20.10;99642.00;;;;340142;28;91360;-88
2023/07/06 00:12:47;;;;;;;;;;;19.90;99.90;20.10;99641.00;;;;339236;28;82490;-88
2023/07/06 00:13:01;;;;;;;;;;;19.90;99.90;20.10;99640.00;;;;338543;28;93343;-88
2023/07/06 00:13:13;;;;;;;;;;;19.90;99.90;20.00;99643.00;;;;339124;28;82497;-88
2023/07/06 00:13:24;;;;;;;;;;;19.90;99.90;20.00;99635.00;;;;345634;28;91299;-88
2023/07/06 00:13:38;;;;;;;;;;;19.90;99.90;19.90;99641.00;;;;346044;28;83445;-88
2023/07/06 00:13:51;;;;;;;;;;;19.90;99.90;20.00;99642.00;;;;340047;28;91347;-88
2023/07/06 00:14:04;;;;;;;;;;;19.90;99.90;20.10;99644.00;;;;340462;28;83837;-88
2023/07/06 00:14:16;;;;;;;;;;;19.90;99.90;20.00;99643.00;;;;341382;28;90458;-88
2023/07/06 00:14:28;;;;;;;;;;;19.90;99.90;19.90;99646.00;;;;341703;28;83427;-88
2023/07/06 00:14:40;;;;;;;;;;;19.90;99.90;19.90;99637.00;;;;340020;28;91335;-88
2023/07/06 00:14:52;;;;;;;;;;;19.90;99.90;20.00;99647.00;;;;339226;28;83357;-88
2023/07/06 00:15:05;;;;;;;;;;;19.80;99.90;20.00;99647.00;;;;341203;28;91358;-88
2023/07/06 00:15:18;;;;;;;;;;;19.80;99.90;20.10;99641.00;;;;340489;28;82557;-88
2023/07/06 00:18:03;;;;;;;;;;;19.70;99.90;19.70;99635.00;;;;334819;28;84333;-91
2023/07/06 00:18:15;;;;;;;;;;;19.70;99.90;19.60;99634.00;;;;337471;28;92005;-90
2023/07/06 00:18:27;;;;;;;;;;;19.70;99.90;19.70;99627.00;;;;337968;28;83551;-90
2023/07/06 00:18:41;;;;;;;;;;;19.70;99.90;19.80;99639.00;;;;333613;29;91381;-90
2023/07/06 00:18:53;;;;;;;;;;;19.70;99.90;19.80;99637.00;;;;334046;29;82590;-90
2023/07/06 00:19:05;;;;;;;;;;;19.70;99.90;19.80;99628.00;;;;336235;28;90830;-90
2023/07/06 00:19:18;;;;;;;;;;;19.70;99.90;19.80;99632.00;;;;332826;29;83442;-90
2023/07/06 00:19:30;;;;;;;;;;;19.70;99.90;19.70;99631.00;;;;332352;29;88868;-90
2023/07/06 00:19:42;;;;;;;;;;;19.70;99.90;19.60;99628.00;;;;334126;29;83413;-90
2023/07/06 00:19:53;;;;;;;;;;;19.60;99.90;19.70;99624.00;;;;335033;29;90490;-90
2023/07/06 00:20:10;;;;;;;;;;;19.60;99.90;19.80;99621.00;;;;336782;28;82648;-90
2023/07/06 00:20:22;;;;;;;;;;;19.60;99.90;19.80;99630.00;;;;334966;29;90297;-90
2023/07/06 00:20:37;;;;;;;;;;;19.70;99.90;19.90;99632.00;;;;334216;29;83459;-90
2023/07/06 00:20:49;;;;;;;;;;;19.70;99.90;19.70;99635.00;;;;333780;29;88611;-90
2023/07/06 00:21:03;;;;;;;;;;;19.70;99.90;19.70;99623.00;;;;335401;29;83919;-90
2023/07/06 00:21:15;;;;;;;;;;;19.70;99.90;19.60;99630.00;;;;334819;29;91352;-90
2023/07/06 00:21:27;;;;;;;;;;;19.60;99.90;19.60;99631.00;;;;335338;29;82635;-89
2023/07/06 00:21:40;;;;;;;;;;;19.60;99.90;19.60;99634.00;;;;333597;29;91475;-90
2023/07/06 00:21:52;;;;;;;;;;;19.60;99.90;19.70;99626.00;;;;335371;29;82609;-90
2023/07/06 00:22:04;;;;;;;;;;;19.60;99.90;19.70;99630.00;;;;334962;29;91481;-90
2023/07/06 00:22:16;;;;;;;;;;;19.60;99.90;19.70;99626.00;;;;335420;29;82592;-90
2023/07/06 00:22:28;;;;;;;;;;;19.60;99.90;19.80;99632.00;;;;336356;28;89053;-90
2023/07/06 00:22:40;;;;;;;;;;;19.60;99.90;19.80;99630.00;;;;335508;29;83570;-90
2023/07/06 00:22:54;;;;;;;;;;;19.60;99.90;19.80;99626.00;;;;332408;29;92024;-90
2023/07/06 00:23:06;;;;;;;;;;;19.60;99.90;19.80;99629.00;;;;334099;29;83907;-90
2023/07/06 00:23:17;;;;;;;;;;;19.60;99.90;19.80;99625.00;;;;336230;28;91474;-90
2023/07/06 00:23:30;;;;;;;;;;;19.60;99.90;19.80;99636.00;;;;334175;29;83374;-89
2023/07/06 00:23:43;;;;;;;;;;;19.60;99.90;19.80;99626.00;;;;334894;29;92357;-90
2023/07/06 00:23:57;;;;;;;;;;;19.60;99.90;19.80;99619.00;;;;334191;29;82376;-90
2023/07/06 00:24:09;;;;;;;;;;;19.60;99.90;19.80;99625.00;;;;331174;29;91562;-90
2023/07/06 00:24:21;;;;;;;;;;;19.60;99.90;19.90;99628.00;;;;334126;29;82469;-90
2023/07/06 00:24:32;;;;;;;;;;;19.60;99.90;19.90;99628.00;;;;334832;29;90878;-90
2023/07/06 00:24:46;;;;;;;;;;;19.60;99.90;19.90;99625.00;;;;334108;29;83181;-90
2023/07/06 00:24:58;;;;;;;;;;;19.60;99.90;19.90;99624.00;;;;334973;29;89382;-90
2023/07/06 00:25:10;;;;;;;;;;;19.60;99.90;19.80;99624.00;;;;335379;28;83443;-90
2023/07/06 00:25:22;;;;;;;;;;;19.60;99.90;19.80;99624.00;;;;334331;28;91407;-88
2023/07/06 00:25:34;;;;;;;;;;;19.60;99.90;19.80;99618.00;;;;334106;29;82519;-90
2023/07/06 00:25:47;;;;;;;;;;;19.60;99.90;19.80;99621.00;;;;333623;29;92245;-90
2023/07/06 00:25:58;;;;;;;;;;;19.60;99.90;19.80;99623.00;;;;335261;29;83465;-90
2023/07/06 00:26:10;;;;;;;;;;;19.60;99.90;19.90;99622.00;;;;334987;29;92332;-90
2023/07/06 00:26:22;;;;;;;;;;;19.60;99.90;19.80;99627.00;;;;335404;29;83466;-90
2023/07/06 00:26:34;;;;;;;;;;;19.60;99.90;19.80;99614.00;;;;334887;29;92119;-90
2023/07/06 00:26:46;;;;;;;;;;;19.60;99.90;19.80;99619.00;;;;336722;28;82447;-89
2023/07/06 00:26:57;;;;;;;;;;;19.60;99.90;19.90;99619.00;;;;334959;29;90768;-89
2023/07/06 00:27:09;;;;;;;;;;;19.60;99.90;19.90;99611.00;;;;335444;29;83555;-90
2023/07/06 00:27:21;;;;;;;;;;;19.60;99.90;19.90;99614.00;;;;334967;29;90817;-90
2023/07/06 00:27:33;;;;;;;;;;;19.60;99.90;19.90;99619.00;;;;335340;29;83573;-90
2023/07/06 00:27:45;;;;;;;;;;;19.60;99.90;19.90;99616.00;;;;336229;28;91908;-90
2023/07/06 00:27:58;;;;;;;;;;;19.70;99.90;19.90;99605.00;;;;332806;29;83433;-90
2023/07/06 00:28:11;;;;;;;;;;;19.70;99.90;20.00;99613.00;;;;333698;29;91204;-90
2023/07/06 00:28:28;;;;;;;;;;;19.70;99.90;19.90;99617.00;;;;336696;28;82488;-89
2023/07/06 00:28:40;;;;;;;;;;;19.70;99.90;19.90;99611.00;;;;333735;29;90565;-90
2023/07/06 00:28:53;;;;;;;;;;;19.70;99.90;20.00;99607.00;;;;335516;29;82514;-90
2023/07/06 00:29:05;;;;;;;;;;;19.70;99.90;19.90;99615.00;;;;336324;28;90299;-90
2023/07/06 00:29:17;;;;;;;;;;;19.70;99.90;19.80;99609.00;;;;335433;29;82490;-90
2023/07/06 00:29:34;;;;;;;;;;;19.70;99.90;19.70;99609.00;;;;334983;29;91461;-90
2023/07/06 00:29:56;;;;;;;;;;;19.70;99.90;19.80;99615.00;;;;335549;29;83404;-90
2023/07/06 00:30:15;;;;;;;;;;;19.70;99.90;19.90;99618.00;;;;337399;28;92370;-90
2023/07/06 00:31:06;;;;;;;;;;;19.70;99.90;19.80;99604.00;;;;335023;29;91847;-90
2023/07/06 00:31:32;;;;;;;;;;;19.70;99.90;19.80;99614.00;;;;334102;29;83396;-90
2023/07/06 00:31:51;;;;;;;;;;;19.70;99.90;19.80;99608.00;;;;333484;29;90578;-90
2023/07/06 00:32:25;;;;;;;;;;;19.70;99.90;19.70;99610.00;;;;336585;28;83401;-90
2023/07/06 00:32:37;;;;;;;;;;;19.60;99.90;19.90;99610.00;;;;333682;29;91467;-90
2023/07/06 00:32:51;;;;;;;;;;;19.70;99.90;19.90;99612.00;;;;334030;29;83480;-90
2023/07/06 00:33:03;;;;;;;;;;;19.70;99.90;19.90;99608.00;;;;334937;29;91899;-90
2023/07/06 00:33:17;;;;;;;;;;;19.70;99.90;19.90;99608.00;;;;335446;29;83276;-89
2023/07/06 00:33:29;;;;;;;;;;;19.70;99.90;19.90;99603.00;;;;332353;29;88684;-90
2023/07/06 00:33:41;;;;;;;;;;;19.70;99.90;19.90;99604.00;;;;334012;29;82696;-90
2023/07/06 00:33:53;;;;;;;;;;;19.70;99.90;19.80;99603.00;;;;333739;29;91646;-90
2023/07/06 00:34:05;;;;;;;;;;;19.70;99.90;19.80;99600.00;;;;335441;29;83372;-90
2023/07/06 00:34:18;;;;;;;;;;;19.70;99.90;19.80;99612.00;;;;333694;29;92390;-89
2023/07/06 00:34:36;;;;;;;;;;;19.70;99.90;19.90;99609.00;;;;336021;28;83483;-90
2023/07/06 00:34:49;;;;;;;;;;;19.70;99.90;19.90;99611.00;;;;334929;29;91805;-90
2023/07/06 00:35:01;;;;;;;;;;;19.70;99.90;19.90;99611.00;;;;334130;29;83334;-90
2023/07/06 00:35:15;;;;;;;;;;;19.70;99.90;19.90;99599.00;;;;332383;29;90468;-90
2023/07/06 00:35:27;;;;;;;;;;;19.70;99.90;19.80;99602.00;;;;334016;29;83448;-90
2023/07/06 00:35:40;;;;;;;;;;;19.70;99.90;19.80;99609.00;;;;333544;29;92956;-90
2023/07/06 00:35:52;;;;;;;;;;;19.70;99.90;19.80;99591.00;;;;335456;29;82276;-91
2023/07/06 00:36:04;;;;;;;;;;;19.70;99.90;19.70;99600.00;;;;334961;29;89139;-90
2023/07/06 00:36:16;;;;;;;;;;;19.70;99.90;19.70;99603.00;;;;331565;29;82550;-90
2023/07/06 00:36:28;;;;;;;;;;;19.70;99.90;19.70;99598.00;;;;333717;29;90758;-90
2023/07/06 00:36:40;;;;;;;;;;;19.70;99.90;19.80;99596.00;;;;334190;29;82588;-90
2023/07/06 00:36:52;;;;;;;;;;;19.70;99.90;19.70;99595.00;;;;333823;29;91425;-90
2023/07/06 00:37:05;;;;;;;;;;;19.70;99.90;19.70;99591.00;;;;334178;29;82452;-90
2023/07/06 00:37:17;;;;;;;;;;;19.70;99.90;19.70;99602.00;;;;333482;29;90632;-90
2023/07/06 00:37:29;;;;;;;;;;;19.70;99.90;19.70;99594.00;;;;334139;29;83341;-90
2023/07/06 00:37:41;;;;;;;;;;;19.70;99.90;19.70;99595.00;;;;336200;28;89938;-90
2023/07/06 00:37:54;;;;;;;;;;;19.70;99.90;19.70;99597.00;;;;335397;29;82496;-90
2023/07/06 00:38:12;;;;;;;;;;;19.60;99.90;19.80;99597.00;;;;333538;29;92433;-90
2023/07/06 00:38:24;;;;;;;;;;;19.60;99.90;19.90;99603.00;;;;335423;29;83450;-90
2023/07/06 00:38:36;;;;;;;;;;;19.60;99.90;19.90;99591.00;;;;333622;29;91447;-89
2023/07/06 00:38:49;;;;;;;;;;;19.70;99.90;19.80;99593.00;;;;334141;29;83333;-90
2023/07/06 00:39:01;;;;;;;;;;;19.70;99.90;19.90;99592.00;;;;333709;29;90242;-90
2023/07/06 00:39:13;;;;;;;;;;;19.60;99.90;19.90;99593.00;;;;335419;29;83546;-90
2023/07/06 00:39:26;;;;;;;;;;;19.70;99.90;19.90;99601.00;;;;334832;29;92249;-90
2023/07/06 00:39:38;;;;;;;;;;;19.70;99.90;19.70;99587.00;;;;336709;28;83322;-89
2023/07/06 00:39:50;;;;;;;;;;;19.60;99.90;19.70;99588.00;;;;336319;28;91829;-90
2023/07/06 00:40:07;;;;;;;;;;;19.60;99.90;19.90;99593.00;;;;332790;29;83440;-91
2023/07/06 00:40:19;;;;;;;;;;;19.60;99.90;19.90;99589.00;;;;332371;29;90778;-90
2023/07/06 00:40:31;;;;;;;;;;;19.70;99.90;19.90;99593.00;;;;334100;29;83372;-90
2023/07/06 00:40:45;;;;;;;;;;;19.70;99.90;19.90;99588.00;;;;333567;29;91535;-90
2023/07/06 00:41:00;;;;;;;;;;;19.70;99.90;19.80;99597.00;;;;332934;29;83584;-90
2023/07/06 00:41:12;;;;;;;;;;;19.70;99.90;19.80;99595.00;;;;335145;29;90336;-90
2023/07/06 00:41:24;;;;;;;;;;;19.70;99.90;19.80;99598.00;;;;335530;29;82636;-90
2023/07/06 00:41:36;;;;;;;;;;;19.70;99.90;19.90;99602.00;;;;333837;29;88905;-90
2023/07/06 00:41:48;;;;;;;;;;;19.70;99.90;19.80;99595.00;;;;334181;29;83456;-90
2023/07/06 00:42:05;;;;;;;;;;;19.70;99.90;19.90;99600.00;;;;331081;29;92409;-90
2023/07/06 00:42:17;;;;;;;;;;;19.70;99.90;19.80;99602.00;;;;334177;29;82588;-90
2023/07/06 00:42:30;;;;;;;;;;;19.70;99.90;19.80;99597.00;;;;335057;29;92039;-90
2023/07/06 00:42:42;;;;;;;;;;;19.70;99.90;19.80;99602.00;;;;334283;29;82412;-90
2023/07/06 00:42:58;;;;;;;;;;;19.70;99.90;19.80;99596.00;;;;331321;29;88874;-90
2023/07/06 00:43:16;;;;;;;;;;;19.70;99.90;19.80;99600.00;;;;334173;29;83409;-90
2023/07/06 00:43:52;;;;;;;;;;;19.70;99.90;19.80;99600.00;;;;335190;29;90146;-90
2023/07/06 00:44:04;;;;;;;;;;;19.70;99.90;19.90;99600.00;;;;334075;29;83318;-90
2023/07/06 00:44:49;;;;;;;;;;;19.70;99.90;19.90;99602.00;;;;334941;29;92616;-90
2023/07/06 00:45:01;;;;;;;;;;;19.70;99.90;19.90;99592.00;;;;335517;29;83412;-90
2023/07/06 00:45:13;;;;;;;;;;;19.70;99.90;19.80;99593.00;;;;334957;29;91911;-90
2023/07/06 00:45:25;;;;;;;;;;;19.70;99.90;19.80;99598.00;;;;336708;28;83378;-90
2023/07/06 00:45:37;;;;;;;;;;;19.70;99.90;19.80;99599.00;;;;334979;29;91613;-90
2023/07/06 00:45:52;;;;;;;;;;;19.60;99.90;19.80;99597.00;;;;332894;29;83456;-90
2023/07/06 00:46:08;;;;;;;;;;;19.70;99.90;19.70;99588.00;;;;333703;29;88741;-90
2023/07/06 00:46:21;;;;;;;;;;;19.70;99.90;19.70;99592.00;;;;334072;29;83577;-90
2023/07/06 00:46:39;;;;;;;;;;;19.70;99.90;19.70;99596.00;;;;332425;29;91750;-90
2023/07/06 00:46:51;;;;;;;;;;;19.60;99.90;19.80;99596.00;;;;332811;29;83437;-90
2023/07/06 00:47:03;;;;;;;;;;;19.70;99.90;19.80;99590.00;;;;334886;29;89170;-90
2023/07/06 00:47:14;;;;;;;;;;;19.60;99.90;19.80;99594.00;;;;334004;29;83391;-90
2023/07/06 00:47:33;;;;;;;;;;;19.60;99.90;19.70;99594.00;;;;334592;29;92606;-90
2023/07/06 00:47:47;;;;;;;;;;;19.60;99.90;19.80;99596.00;;;;335319;29;83543;-90
2023/07/06 00:47:59;;;;;;;;;;;19.60;99.90;19.70;99595.00;;;;333524;29;91427;-90
2023/07/06 00:48:17;;;;;;;;;;;19.60;99.90;19.70;99589.00;;;;336691;28;83248;-90
2023/07/06 00:48:33;;;;;;;;;;;19.60;99.90;19.90;99590.00;;;;334881;29;89224;-90
2023/07/06 00:48:45;;;;;;;;;;;19.60;99.90;19.90;99592.00;;;;335216;29;83516;-90
2023/07/06 00:48:57;;;;;;;;;;;19.60;99.90;20.00;99594.00;;;;334934;29;91211;-90
2023/07/06 00:49:15;;;;;;;;;;;19.60;99.90;20.00;99594.00;;;;336574;28;83521;-90
2023/07/06 00:49:27;;;;;;;;;;;19.70;99.90;19.90;99591.00;;;;334688;29;90621;-90
2023/07/06 00:49:39;;;;;;;;;;;19.70;99.90;19.90;99597.00;;;;334051;29;82512;-90
2023/07/06 00:49:51;;;;;;;;;;;19.70;99.90;19.80;99595.00;;;;334829;29;93445;-90
2023/07/06 00:50:20;;;;;;;;;;;19.70;99.90;19.80;99602.00;;;;335274;29;82530;-90
2023/07/06 00:50:32;;;;;;;;;;;19.70;99.90;19.90;99602.00;;;;336292;28;91862;-90
2023/07/06 00:50:44;;;;;;;;;;;19.70;99.90;19.90;99597.00;;;;335305;29;83384;-90
2023/07/06 00:50:58;;;;;;;;;;;19.70;99.90;19.90;99590.00;;;;334947;29;90745;-89
2023/07/06 00:51:13;;;;;;;;;;;19.70;99.90;19.90;99593.00;;;;335435;29;83384;-90
2023/07/06 00:51:27;;;;;;;;;;;19.70;99.90;19.90;99591.00;;;;333514;29;91216;-90
2023/07/06 00:51:39;;;;;;;;;;;19.70;99.90;19.90;99595.00;;;;333978;29;83513;-90
2023/07/06 00:51:52;;;;;;;;;;;19.70;99.90;19.90;99596.00;;;;333435;29;91585;-89
2023/07/06 00:52:04;;;;;;;;;;;19.70;99.90;19.90;99597.00;;;;335244;28;82565;-90
2023/07/06 00:52:16;;;;;;;;;;;19.70;99.90;19.90;99596.00;;;;334919;29;91119;-89
2023/07/06 00:52:28;;;;;;;;;;;19.70;99.90;19.90;99600.00;;;;335386;29;83451;-90
2023/07/06 00:52:49;;;;;;;;;;;19.70;99.90;20.00;99592.00;;;;335945;28;90922;-89
2023/07/06 00:53:04;;;;;;;;;;;19.70;99.90;19.90;99599.00;;;;336624;28;83758;-89
2023/07/06 00:53:16;;;;;;;;;;;19.70;99.90;19.80;99600.00;;;;336228;28;91301;-89
2023/07/06 00:53:32;;;;;;;;;;;19.70;99.90;19.80;99593.00;;;;335280;29;82654;-90
2023/07/06 00:53:47;;;;;;;;;;;19.60;99.90;20.00;99597.00;;;;334877;29;91336;-90
2023/07/06 00:54:02;;;;;;;;;;;19.70;99.90;20.00;99597.00;;;;336624;28;82491;-90
2023/07/06 00:54:16;;;;;;;;;;;19.70;99.90;20.00;99591.00;;;;337532;28;91511;-89
2023/07/06 00:54:29;;;;;;;;;;;19.70;99.90;20.00;99591.00;;;;335414;29;82389;-90
2023/07/06 00:54:40;;;;;;;;;;;19.70;99.90;20.00;99596.00;;;;334760;29;91468;-90
2023/07/06 00:54:54;;;;;;;;;;;19.70;99.90;20.00;99589.00;;;;335274;29;82561;-90
2023/07/06 00:55:06;;;;;;;;;;;19.70;99.90;19.90;99590.00;;;;334942;29;91490;-90
2023/07/06 00:55:19;;;;;;;;;;;19.70;99.90;19.90;99588.00;;;;336735;28;82414;-90
2023/07/06 00:55:36;;;;;;;;;;;19.70;99.90;19.80;99589.00;;;;336273;28;91431;-90
2023/07/06 00:55:48;;;;;;;;;;;19.70;99.90;19.80;99594.00;;;;334161;29;82468;-90
2023/07/06 00:56:00;;;;;;;;;;;19.70;99.90;19.80;99596.00;;;;334818;29;91351;-89
2023/07/06 00:56:16;;;;;;;;;;;19.70;99.90;19.80;99598.00;;;;335346;29;82492;-90
2023/07/06 00:56:29;;;;;;;;;;;19.70;99.90;19.70;99592.00;;;;336262;28;91421;-89
2023/07/06 00:56:42;;;;;;;;;;;19.70;99.90;19.70;99593.00;;;;335069;28;82630;-90
2023/07/06 00:56:54;;;;;;;;;;;19.70;99.90;19.70;99587.00;;;;332281;29;90107;-89
2023/07/06 00:57:09;;;;;;;;;;;19.70;99.90;19.70;99594.00;;;;334105;29;82606;-90
2023/07/06 00:57:21;;;;;;;;;;;19.70;99.90;19.70;99593.00;;;;333521;29;91960;-90
2023/07/06 00:57:34;;;;;;;;;;;19.70;99.90;19.70;99585.00;;;;334045;29;83743;-90
2023/07/06 00:57:47;;;;;;;;;;;19.70;99.90;19.70;99590.00;;;;333676;29;90175;-90
2023/07/06 00:58:02;;;;;;;;;;;19.70;99.90;19.60;99593.00;;;;335304;29;83540;-90
2023/07/06 00:58:44;;;;;;;;;;;19.70;99.90;19.80;99602.00;;;;334930;29;91558;-90
2023/07/06 00:59:05;;;;;;;;;;;19.70;99.90;19.80;99583.00;;;;333950;29;82693;-90
2023/07/06 00:59:19;;;;;;;;;;;19.70;99.90;19.90;99589.00;;;;333473;29;91419;-90
2023/07/06 00:59:31;;;;;;;;;;;19.70;99.90;19.90;99594.00;;;;336509;28;83567;-91
2023/07/06 00:59:43;;;;;;;;;;;19.70;99.90;19.80;99591.00;;;;333616;29;91267;-90
2023/07/06 00:59:54;;;;;;;;;;;19.70;99.90;19.70;99592.00;;;;331578;29;82530;-90
2023/07/06 01:00:07;;;;;;;;;;;19.70;99.90;19.70;99591.00;;;;334899;29;89059;-90
2023/07/06 01:00:21;;;;;;;;;;;19.70;99.90;19.70;99591.00;;;;336642;28;83221;-90
2023/07/06 01:00:35;;;;;;;;;;;19.70;99.90;19.80;99586.00;;;;332250;29;89350;-90
2023/07/06 01:00:49;;;;;;;;;;;19.70;99.90;19.90;99592.00;;;;334004;29;82741;-90
2023/07/06 01:01:03;;;;;;;;;;;19.70;99.90;20.00;99588.00;;;;334864;29;91353;-90
2023/07/06 01:01:16;;;;;;;;;;;19.70;99.90;20.00;99587.00;;;;338015;28;82308;-90
2023/07/06 01:01:28;;;;;;;;;;;19.70;99.90;19.90;99590.00;;;;334896;29;89294;-90
2023/07/06 01:01:43;;;;;;;;;;;19.70;99.90;20.00;99586.00;;;;332687;29;83621;-90
2023/07/06 01:01:55;;;;;;;;;;;19.70;99.90;19.90;99588.00;;;;334802;29;91609;-90
2023/07/06 01:02:09;;;;;;;;;;;19.70;99.90;19.80;99593.00;;;;335290;29;82536;-90
2023/07/06 01:02:21;;;;;;;;;;;19.70;99.90;19.70;99587.00;;;;333694;29;91329;-90
2023/07/06 01:02:38;;;;;;;;;;;19.70;99.90;19.80;99595.00;;;;333974;29;83504;-90
2023/07/06 01:02:54;;;;;;;;;;;19.70;99.90;19.80;99599.00;;;;332365;29;91720;-90
2023/07/06 01:03:06;;;;;;;;;;;19.70;99.90;19.80;99600.00;;;;335288;29;83599;-90
2023/07/06 01:03:19;;;;;;;;;;;19.70;99.90;19.90;99594.00;;;;333702;29;90234;-90
2023/07/06 01:03:33;;;;;;;;;;;19.70;99.90;19.80;99590.00;;;;335320;29;82603;-90
2023/07/06 01:03:46;;;;;;;;;;;19.70;99.90;19.70;99598.00;;;;334955;29;90413;-90
2023/07/06 01:03:59;;;;;;;;;;;19.70;99.90;19.70;99595.00;;;;332805;29;82594;-90
2023/07/06 01:04:12;;;;;;;;;;;19.70;99.90;19.70;99590.00;;;;336143;28;93030;-90
2023/07/06 01:04:24;;;;;;;;;;;19.70;99.90;19.70;99586.00;;;;335384;29;83495;-90
2023/07/06 01:04:36;;;;;;;;;;;19.70;99.90;19.80;99591.00;;;;333622;29;91516;-90
2023/07/06 01:04:48;;;;;;;;;;;19.70;99.90;19.80;99592.00;;;;334083;29;83503;-90
2023/07/06 01:05:01;;;;;;;;;;;19.70;99.90;19.70;99595.00;;;;334670;29;90150;-91
2023/07/06 01:05:14;;;;;;;;;;;19.70;99.90;19.80;99597.00;;;;334099;29;83304;-90
2023/07/06 01:05:26;;;;;;;;;;;19.70;99.90;19.80;99590.00;;;;334877;29;91668;-90
2023/07/06 01:05:39;;;;;;;;;;;19.70;99.90;19.80;99591.00;;;;335354;29;83313;-90
2023/07/06 01:05:53;;;;;;;;;;;19.70;99.90;19.80;99590.00;;;;334901;29;91518;-91
2023/07/06 01:06:05;;;;;;;;;;;19.70;99.90;19.70;99598.00;;;;333940;29;83575;-90
2023/07/06 01:06:23;;;;;;;;;;;19.70;99.90;19.60;99600.00;;;;333626;29;90156;-90
2023/07/06 01:06:42;;;;;;;;;;;19.60;99.90;19.60;99599.00;;;;335318;29;83558;-90
2023/07/06 01:06:54;;;;;;;;;;;19.70;99.90;19.70;99597.00;;;;334967;29;91491;-90
2023/07/06 01:07:06;;;;;;;;;;;19.60;99.90;19.70;99600.00;;;;334041;29;83536;-90
2023/07/06 01:07:19;;;;;;;;;;;19.60;99.90;19.70;99598.00;;;;333670;29;91271;-90
2023/07/06 01:07:31;;;;;;;;;;;19.60;99.90;19.60;99597.00;;;;335274;29;83533;-90
2023/07/06 01:07:45;;;;;;;;;;;19.60;99.90;19.60;99595.00;;;;336195;28;91874;-90
2023/07/06 01:07:59;;;;;;;;;;;19.60;99.90;19.60;99603.00;;;;334015;29;82515;-90
2023/07/06 01:08:13;;;;;;;;;;;19.60;99.90;19.60;99599.00;;;;333626;29;91176;-90
2023/07/06 01:08:25;;;;;;;;;;;19.60;99.90;19.60;99595.00;;;;335371;29;83526;-90
2023/07/06 01:08:37;;;;;;;;;;;19.60;99.90;19.60;99594.00;;;;333476;29;92426;-90
2023/07/06 01:08:49;;;;;;;;;;;19.60;99.90;19.70;99594.00;;;;334120;29;82511;-90
2023/07/06 01:09:03;;;;;;;;;;;19.60;99.90;19.70;99593.00;;;;334806;29;92038;-90
2023/07/06 01:09:17;;;;;;;;;;;19.60;99.90;19.70;99594.00;;;;334080;29;83423;-90
2023/07/06 01:09:29;;;;;;;;;;;19.60;99.90;19.70;99595.00;;;;333659;29;90433;-90
2023/07/06 01:09:41;;;;;;;;;;;19.60;99.90;19.70;99595.00;;;;336571;28;82587;-90
2023/07/06 01:09:52;;;;;;;;;;;19.60;99.90;19.70;99590.00;;;;332412;29;91727;-90